Time;durP1;ratioP1;P1;durP2;ratioP2;P2;SDS_P1;SDS_P2;PMS_P1;PMS_P2;Temp;Humidity;BMP_temperature;BMP_pressure;BME280_temperature;BME280_humidity;BME280_pressure;Samples;Min_cycle;Max_cycle;Signal;HPM_P1;HPM_P2
2023/05/02 00:03:36;;;;;;;;;;;;;;;22.81;41.85;100411.81;41493053;28;19925;-78
2023/05/02 00:23:37;;;;;;;;;;;;;;;22.78;42.60;100407.63;41470756;28;19921;-75
2023/05/02 00:43:40;;;;;;;;;;;;;;;22.78;42.25;100402.34;41521472;28;19925;-75
2023/05/02 01:03:49;;;;;;;;;;;;;;;22.77;42.12;100408.59;41472713;28;20369;-75
2023/05/02 01:24:06;;;;;;;;;;;;;;;22.71;42.36;100407.28;41454352;28;20064;-77
2023/05/02 01:44:07;;;;;;;;;;;;;;;22.71;42.09;100396.72;41459177;28;20398;-77
2023/05/02 02:04:08;;;;;;;;;;;;;;;22.71;42.11;100385.34;41451763;28;19929;-78
2023/05/02 02:24:10;;;;;;;;;;;;;;;22.64;42.11;100386.81;41499615;28;21403;-76
2023/05/02 02:44:29;;;;;;;;;;;;;;;22.63;42.17;100377.22;41519467;28;20052;-75
2023/05/02 03:04:31;;;;;;;;;;;;;;;22.65;42.20;100383.22;41486985;28;19924;-75
2023/05/02 03:24:32;;;;;;;;;;;;;;;22.60;42.36;100394.16;41532447;28;19967;-75
2023/05/02 03:44:32;;;;;;;;;;;;;;;22.62;42.28;100401.94;41483575;28;20332;-75
2023/05/02 04:04:33;;;;;;;;;;;;;;;22.61;41.83;100416.13;41428315;28;20527;-77
2023/05/02 04:24:33;;;;;;;;;;;;;;;22.63;42.73;100417.66;41427250;28;19929;-80
2023/05/02 04:44:33;;;;;;;;;;;;;;;22.68;43.44;100441.88;41409764;28;19925;-73
2023/05/02 05:04:34;;;;;;;;;;;;;;;22.43;39.62;100444.88;41487968;28;19936;-77
2023/05/02 05:24:34;;;;;;;;;;;;;;;22.53;40.66;100456.31;41519556;28;19925;-75
2023/05/02 05:44:35;;;;;;;;;;;;;;;22.58;41.55;100477.06;41530649;28;20369;-74
2023/05/02 06:04:36;;;;;;;;;;;;;;;22.61;42.02;100488.22;41549713;28;20284;-74
2023/05/02 06:24:37;;;;;;;;;;;;;;;22.65;42.24;100484.34;41618852;28;19925;-75
2023/05/02 06:44:37;;;;;;;;;;;;;;;22.66;42.49;100493.13;41534337;28;20343;-77
2023/05/02 07:04:37;;;;;;;;;;;;;;;22.67;43.08;100490.34;41530950;28;19940;-76
2023/05/02 07:24:41;;;;;;;;;;;;;;;22.77;42.62;100489.59;41526719;28;19928;-79
2023/05/02 07:44:41;;;;;;;;;;;;;;;22.80;43.12;100505.16;41560468;28;19932;-78
2023/05/02 08:04:42;;;;;;;;;;;;;;;22.82;43.22;100500.59;41514857;28;19936;-79
2023/05/02 08:24:42;;;;;;;;;;;;;;;22.88;43.32;100505.38;41479078;28;20898;-81
2023/05/02 08:44:42;;;;;;;;;;;;;;;22.92;43.48;100496.22;41491204;28;19922;-79
2023/05/02 09:04:49;;;;;;;;;;;;;;;22.96;43.40;100478.31;41577010;28;19912;-81
2023/05/02 09:24:53;;;;;;;;;;;;;;;22.95;40.14;100474.00;41607605;28;20327;-82
2023/05/02 09:44:53;;;;;;;;;;;;;;;22.97;41.75;100475.56;41581441;28;19928;-81
2023/05/02 10:04:55;;;;;;;;;;;;;;;23.00;41.18;100448.88;41557806;28;20304;-80
2023/05/02 10:24:56;;;;;;;;;;;;;;;23.05;40.91;100453.78;41540306;28;20279;-76
2023/05/02 10:44:58;;;;;;;;;;;;;;;23.12;38.35;100448.81;41496620;28;19925;-77
2023/05/02 11:05:07;;;;;;;;;;;;;;;23.16;38.77;100429.97;41614248;28;20390;-80
2023/05/02 11:25:27;;;;;;;;;;;;;;;23.22;38.85;100414.56;41498456;28;20384;-77
2023/05/02 11:45:35;;;;;;;;;;;;;;;23.30;38.76;100397.09;41539419;28;19995;-79
2023/05/02 12:05:38;;;;;;;;;;;;;;;23.31;38.06;100382.06;41485291;28;19932;-83
2023/05/02 12:25:39;;;;;;;;;;;;;;;23.31;38.00;100376.78;41556490;28;19925;-86
2023/05/02 12:45:41;;;;;;;;;;;;;;;23.33;35.62;100366.94;41530338;28;19967;-84
2023/05/02 13:05:44;;;;;;;;;;;;;;;23.37;35.90;100360.41;41570246;28;19972;-80
2023/05/02 13:25:46;;;;;;;;;;;;;;;23.33;34.87;100349.25;41552538;28;19936;-82
2023/05/02 13:45:48;;;;;;;;;;;;;;;23.34;35.51;100350.13;41503118;28;19972;-80
2023/05/02 14:05:49;;;;;;;;;;;;;;;23.30;33.90;100351.34;41527407;28;19932;-85
2023/05/02 14:25:50;;;;;;;;;;;;;;;23.26;31.86;100345.47;41648170;28;19964;-82
2023/05/02 14:45:50;;;;;;;;;;;;;;;23.22;32.00;100338.81;41550248;28;19959;-81
2023/05/02 15:05:52;;;;;;;;;;;;;;;23.13;31.64;100347.47;41573508;28;19936;-79
2023/05/02 15:25:52;;;;;;;;;;;;;;;23.07;31.98;100346.22;41482961;28;19971;-79
2023/05/02 15:45:53;;;;;;;;;;;;;;;23.07;32.25;100335.66;41582680;28;19932;-86
2023/05/02 16:05:56;;;;;;;;;;;;;;;23.20;33.53;100332.81;41539036;28;19925;-77
2023/05/02 16:25:57;;;;;;;;;;;;;;;23.25;34.20;100332.41;41479890;28;19930;-81
2023/05/02 16:46:00;;;;;;;;;;;;;;;23.26;34.01;100326.97;41413700;28;19986;-80
2023/05/02 17:06:01;;;;;;;;;;;;;;;23.31;35.00;100334.50;41430408;28;19936;-82
2023/05/02 17:26:01;;;;;;;;;;;;;;;23.33;36.42;100377.50;41479385;28;19975;-83
2023/05/02 17:46:08;;;;;;;;;;;;;;;23.33;36.89;100383.59;41510517;28;20352;-81
2023/05/02 18:06:14;;;;;;;;;;;;;;;23.25;37.36;100401.91;41531292;28;19921;-77
2023/05/02 18:26:14;;;;;;;;;;;;;;;23.37;38.60;100425.63;41554002;28;20418;-76
2023/05/02 18:46:14;;;;;;;;;;;;;;;23.41;39.49;100451.66;41451404;28;20006;-79
2023/05/02 19:06:19;;;;;;;;;;;;;;;23.41;40.13;100475.44;41545872;28;19916;-79
2023/05/02 19:26:19;;;;;;;;;;;;;;;23.42;40.12;100535.22;41615865;28;19947;-80
2023/05/02 19:46:20;;;;;;;;;;;;;;;23.41;40.17;100523.00;41604762;28;19927;-82
2023/05/02 20:06:20;;;;;;;;;;;;;;;23.40;39.79;100537.19;41597608;28;19921;-84
2023/05/02 20:26:21;;;;;;;;;;;;;;;23.40;39.98;100550.41;41607020;28;19931;-82
2023/05/02 20:46:27;;;;;;;;;;;;;;;23.37;40.18;100555.09;41630522;28;19909;-80
2023/05/02 21:06:30;;;;;;;;;;;;;;;23.36;40.31;100567.47;41551869;28;19936;-84
2023/05/02 21:26:30;;;;;;;;;;;;;;;23.31;40.52;100562.59;41580706;28;19943;-82
2023/05/02 21:46:31;;;;;;;;;;;;;;;23.33;40.57;100576.50;41558417;28;19921;-78
2023/05/02 22:06:32;;;;;;;;;;;;;;;23.30;41.21;100613.75;41549836;28;19967;-82
2023/05/02 22:26:32;;;;;;;;;;;;;;;23.28;40.93;100635.97;41561843;28;21524;-81
2023/05/02 22:46:32;;;;;;;;;;;;;;;23.22;41.19;100631.19;41560373;28;19945;-84
2023/05/02 23:06:34;;;;;;;;;;;;;;;23.16;41.61;100645.72;41513256;28;20373;-84
2023/05/02 23:26:35;;;;;;;;;;;;;;;23.11;41.50;100656.66;41573138;28;19996;-79
2023/05/02 23:46:36;;;;;;;;;;;;;;;23.09;41.56;100633.97;41490712;28;19921;-83
